sensor_id;sensor_type;location;lat;lon;timestamp;P1;durP1;ratioP1;P2;durP2;ratioP2
12441;SDS011;6285;48.804;9.220;2023-11-19T00:00:16;7.05;;;4.63;;
12441;SDS011;6285;48.804;9.220;2023-11-19T00:02:44;7.93;;;3.80;;
12441;SDS011;6285;48.804;9.220;2023-11-19T00:05:12;3.88;;;2.60;;
12441;SDS011;6285;48.804;9.220;2023-11-19T00:07:41;4.72;;;3.22;;
12441;SDS011;6285;48.804;9.220;2023-11-19T00:10:08;3.80;;;3.03;;
12441;SDS011;6285;48.804;9.220;2023-11-19T00:12:36;3.33;;;2.78;;
12441;SDS011;6285;48.804;9.220;2023-11-19T00:15:03;5.85;;;3.85;;
12441;SDS011;6285;48.804;9.220;2023-11-19T00:17:34;4.75;;;3.88;;
12441;SDS011;6285;48.804;9.220;2023-11-19T00:20:01;5.60;;;4.30;;
12441;SDS011;6285;48.804;9.220;2023-11-19T00:22:30;8.55;;;5.18;;
12441;SDS011;6285;48.804;9.220;2023-11-19T00:24:59;7.28;;;5.22;;
12441;SDS011;6285;48.804;9.220;2023-11-19T00:27:27;11.93;;;7.85;;
12441;SDS011;6285;48.804;9.220;2023-11-19T00:29:54;17.30;;;9.73;;
12441;SDS011;6285;48.804;9.220;2023-11-19T00:32:21;19.50;;;11.63;;
12441;SDS011;6285;48.804;9.220;2023-11-19T00:34:49;17.38;;;10.32;;
12441;SDS011;6285;48.804;9.220;2023-11-19T00:37:16;10.93;;;7.60;;
12441;SDS011;6285;48.804;9.220;2023-11-19T00:39:43;8.38;;;5.40;;
12441;SDS011;6285;48.804;9.220;2023-11-19T00:42:12;3.45;;;3.00;;
12441;SDS011;6285;48.804;9.220;2023-11-19T00:44:39;4.25;;;3.05;;
12441;SDS011;6285;48.804;9.220;2023-11-19T00:47:07;2.85;;;2.50;;
12441;SDS011;6285;48.804;9.220;2023-11-19T00:49:34;3.30;;;2.40;;
12441;SDS011;6285;48.804;9.220;2023-11-19T00:52:01;3.38;;;2.88;;
12441;SDS011;6285;48.804;9.220;2023-11-19T00:54:28;2.95;;;2.50;;
12441;SDS011;6285;48.804;9.220;2023-11-19T00:56:55;2.53;;;2.33;;
12441;SDS011;6285;48.804;9.220;2023-11-19T00:59:24;3.22;;;2.47;;
12441;SDS011;6285;48.804;9.220;2023-11-19T01:01:51;2.72;;;2.45;;
12441;SDS011;6285;48.804;9.220;2023-11-19T01:04:18;3.33;;;2.40;;
12441;SDS011;6285;48.804;9.220;2023-11-19T01:06:45;3.03;;;2.20;;
12441;SDS011;6285;48.804;9.220;2023-11-19T01:09:12;2.85;;;2.17;;
12441;SDS011;6285;48.804;9.220;2023-11-19T01:11:40;3.63;;;2.58;;
12441;SDS011;6285;48.804;9.220;2023-11-19T01:14:07;2.83;;;2.42;;
12441;SDS011;6285;48.804;9.220;2023-11-19T01:16:35;3.95;;;2.60;;
12441;SDS011;6285;48.804;9.220;2023-11-19T01:19:02;3.80;;;2.75;;
12441;SDS011;6285;48.804;9.220;2023-11-19T01:21:30;2.92;;;2.63;;
12441;SDS011;6285;48.804;9.220;2023-11-19T01:23:57;2.78;;;2.30;;
12441;SDS011;6285;48.804;9.220;2023-11-19T01:26:24;2.72;;;2.33;;
12441;SDS011;6285;48.804;9.220;2023-11-19T01:28:52;2.58;;;2.13;;
12441;SDS011;6285;48.804;9.220;2023-11-19T01:31:19;3.65;;;2.10;;
12441;SDS011;6285;48.804;9.220;2023-11-19T01:33:47;2.53;;;1.95;;
12441;SDS011;6285;48.804;9.220;2023-11-19T01:36:15;2.75;;;2.40;;
12441;SDS011;6285;48.804;9.220;2023-11-19T01:38:42;3.35;;;2.15;;
12441;SDS011;6285;48.804;9.220;2023-11-19T01:41:09;2.50;;;2.17;;
12441;SDS011;6285;48.804;9.220;2023-11-19T01:43:37;3.60;;;2.40;;
12441;SDS011;6285;48.804;9.220;2023-11-19T01:46:06;3.10;;;2.08;;
12441;SDS011;6285;48.804;9.220;2023-11-19T01:48:34;3.35;;;3.05;;
12441;SDS011;6285;48.804;9.220;2023-11-19T01:51:04;3.15;;;2.55;;
12441;SDS011;6285;48.804;9.220;2023-11-19T01:53:31;3.60;;;2.92;;
12441;SDS011;6285;48.804;9.220;2023-11-19T01:56:00;3.45;;;2.95;;
12441;SDS011;6285;48.804;9.220;2023-11-19T01:58:27;4.60;;;3.00;;
12441;SDS011;6285;48.804;9.220;2023-11-19T02:00:55;5.18;;;3.10;;
12441;SDS011;6285;48.804;9.220;2023-11-19T02:03:23;3.65;;;3.28;;
12441;SDS011;6285;48.804;9.220;2023-11-19T02:05:51;5.15;;;2.90;;
12441;SDS011;6285;48.804;9.220;2023-11-19T02:08:20;3.97;;;3.00;;
12441;SDS011;6285;48.804;9.220;2023-11-19T02:10:47;5.47;;;3.42;;
12441;SDS011;6285;48.804;9.220;2023-11-19T02:13:14;4.05;;;3.40;;
12441;SDS011;6285;48.804;9.220;2023-11-19T02:15:41;6.00;;;3.70;;
12441;SDS011;6285;48.804;9.220;2023-11-19T02:18:18;5.03;;;3.63;;
12441;SDS011;6285;48.804;9.220;2023-11-19T02:20:47;4.50;;;3.33;;
12441;SDS011;6285;48.804;9.220;2023-11-19T02:23:14;5.10;;;3.47;;
12441;SDS011;6285;48.804;9.220;2023-11-19T02:25:44;3.80;;;3.30;;
12441;SDS011;6285;48.804;9.220;2023-11-19T02:28:17;1.90;;;1.80;;
12441;SDS011;6285;48.804;9.220;2023-11-19T02:30:44;2.97;;;2.35;;
12441;SDS011;6285;48.804;9.220;2023-11-19T02:33:11;5.07;;;4.00;;
12441;SDS011;6285;48.804;9.220;2023-11-19T02:35:38;4.95;;;3.97;;
12441;SDS011;6285;48.804;9.220;2023-11-19T02:38:06;4.22;;;3.70;;
12441;SDS011;6285;48.804;9.220;2023-11-19T02:40:34;4.50;;;3.70;;
12441;SDS011;6285;48.804;9.220;2023-11-19T02:43:01;5.20;;;4.60;;
12441;SDS011;6285;48.804;9.220;2023-11-19T02:45:31;4.25;;;3.85;;
12441;SDS011;6285;48.804;9.220;2023-11-19T02:47:58;5.13;;;4.45;;
12441;SDS011;6285;48.804;9.220;2023-11-19T02:50:27;6.18;;;4.35;;
12441;SDS011;6285;48.804;9.220;2023-11-19T02:52:55;5.35;;;3.75;;
12441;SDS011;6285;48.804;9.220;2023-11-19T02:55:22;5.43;;;4.18;;
12441;SDS011;6285;48.804;9.220;2023-11-19T02:57:50;5.82;;;4.28;;
12441;SDS011;6285;48.804;9.220;2023-11-19T03:00:18;5.40;;;4.90;;
12441;SDS011;6285;48.804;9.220;2023-11-19T03:02:50;5.85;;;4.25;;
12441;SDS011;6285;48.804;9.220;2023-11-19T03:05:24;6.25;;;4.95;;
12441;SDS011;6285;48.804;9.220;2023-11-19T03:07:51;7.95;;;5.35;;
12441;SDS011;6285;48.804;9.220;2023-11-19T03:10:18;7.50;;;6.25;;
12441;SDS011;6285;48.804;9.220;2023-11-19T03:12:45;6.68;;;6.07;;
12441;SDS011;6285;48.804;9.220;2023-11-19T03:15:13;5.55;;;4.95;;
12441;SDS011;6285;48.804;9.220;2023-11-19T03:17:41;7.15;;;5.55;;
12441;SDS011;6285;48.804;9.220;2023-11-19T03:20:10;7.40;;;5.63;;
12441;SDS011;6285;48.804;9.220;2023-11-19T03:22:40;6.28;;;5.18;;
12441;SDS011;6285;48.804;9.220;2023-11-19T03:25:07;6.63;;;6.03;;
12441;SDS011;6285;48.804;9.220;2023-11-19T03:27:35;7.13;;;5.50;;
12441;SDS011;6285;48.804;9.220;2023-11-19T03:30:03;5.32;;;4.82;;
12441;SDS011;6285;48.804;9.220;2023-11-19T03:32:31;9.43;;;6.18;;
12441;SDS011;6285;48.804;9.220;2023-11-19T03:34:59;6.55;;;5.95;;
12441;SDS011;6285;48.804;9.220;2023-11-19T03:37:30;7.50;;;5.75;;
12441;SDS011;6285;48.804;9.220;2023-11-19T03:39:58;6.50;;;5.43;;
12441;SDS011;6285;48.804;9.220;2023-11-19T03:42:25;6.82;;;5.57;;
12441;SDS011;6285;48.804;9.220;2023-11-19T03:44:53;6.22;;;5.13;;
12441;SDS011;6285;48.804;9.220;2023-11-19T03:47:20;5.82;;;4.97;;
12441;SDS011;6285;48.804;9.220;2023-11-19T03:49:47;5.03;;;4.03;;
12441;SDS011;6285;48.804;9.220;2023-11-19T03:52:15;6.15;;;4.38;;
12441;SDS011;6285;48.804;9.220;2023-11-19T03:54:43;6.55;;;4.25;;
12441;SDS011;6285;48.804;9.220;2023-11-19T03:57:11;4.63;;;4.18;;
12441;SDS011;6285;48.804;9.220;2023-11-19T03:59:40;5.10;;;4.15;;
12441;SDS011;6285;48.804;9.220;2023-11-19T04:02:08;5.63;;;4.00;;
12441;SDS011;6285;48.804;9.220;2023-11-19T04:04:35;3.83;;;3.50;;
12441;SDS011;6285;48.804;9.220;2023-11-19T04:07:03;3.88;;;3.53;;
12441;SDS011;6285;48.804;9.220;2023-11-19T04:09:30;3.72;;;3.42;;
12441;SDS011;6285;48.804;9.220;2023-11-19T04:11:59;3.90;;;3.55;;
12441;SDS011;6285;48.804;9.220;2023-11-19T04:14:27;6.43;;;3.63;;
12441;SDS011;6285;48.804;9.220;2023-11-19T04:16:54;4.15;;;3.60;;
12441;SDS011;6285;48.804;9.220;2023-11-19T04:19:21;5.05;;;3.78;;
12441;SDS011;6285;48.804;9.220;2023-11-19T04:21:49;3.75;;;2.72;;
12441;SDS011;6285;48.804;9.220;2023-11-19T04:24:17;2.78;;;2.45;;
12441;SDS011;6285;48.804;9.220;2023-11-19T04:26:44;3.22;;;2.50;;
12441;SDS011;6285;48.804;9.220;2023-11-19T04:29:14;3.85;;;2.30;;
12441;SDS011;6285;48.804;9.220;2023-11-19T04:31:42;3.25;;;2.40;;
12441;SDS011;6285;48.804;9.220;2023-11-19T04:34:09;2.60;;;1.90;;
12441;SDS011;6285;48.804;9.220;2023-11-19T04:36:37;3.53;;;1.70;;
12441;SDS011;6285;48.804;9.220;2023-11-19T04:39:04;2.63;;;2.30;;
12441;SDS011;6285;48.804;9.220;2023-11-19T04:41:34;2.08;;;1.73;;
12441;SDS011;6285;48.804;9.220;2023-11-19T04:44:01;1.77;;;1.50;;
12441;SDS011;6285;48.804;9.220;2023-11-19T04:46:30;1.98;;;1.70;;
12441;SDS011;6285;48.804;9.220;2023-11-19T04:48:57;1.55;;;0.93;;
12441;SDS011;6285;48.804;9.220;2023-11-19T04:51:24;0.73;;;0.70;;
12441;SDS011;6285;48.804;9.220;2023-11-19T04:53:51;0.40;;;0.40;;
12441;SDS011;6285;48.804;9.220;2023-11-19T04:56:18;1.33;;;0.85;;
12441;SDS011;6285;48.804;9.220;2023-11-19T04:58:48;1.40;;;0.93;;
12441;SDS011;6285;48.804;9.220;2023-11-19T05:01:15;0.60;;;0.50;;
12441;SDS011;6285;48.804;9.220;2023-11-19T05:03:44;1.30;;;0.45;;
12441;SDS011;6285;48.804;9.220;2023-11-19T05:06:11;0.77;;;0.47;;
12441;SDS011;6285;48.804;9.220;2023-11-19T05:08:38;0.50;;;0.47;;
12441;SDS011;6285;48.804;9.220;2023-11-19T05:11:05;0.93;;;0.47;;
12441;SDS011;6285;48.804;9.220;2023-11-19T05:13:32;2.05;;;0.30;;
12441;SDS011;6285;48.804;9.220;2023-11-19T05:16:00;0.45;;;0.30;;
12441;SDS011;6285;48.804;9.220;2023-11-19T05:18:27;0.50;;;0.50;;
12441;SDS011;6285;48.804;9.220;2023-11-19T05:20:55;0.85;;;0.57;;
12441;SDS011;6285;48.804;9.220;2023-11-19T05:23:22;0.88;;;0.50;;
12441;SDS011;6285;48.804;9.220;2023-11-19T05:25:49;1.88;;;0.57;;
12441;SDS011;6285;48.804;9.220;2023-11-19T05:28:16;1.02;;;0.57;;
12441;SDS011;6285;48.804;9.220;2023-11-19T05:30:44;0.60;;;0.50;;
12441;SDS011;6285;48.804;9.220;2023-11-19T05:33:11;0.90;;;0.60;;
12441;SDS011;6285;48.804;9.220;2023-11-19T05:35:38;1.08;;;0.43;;
12441;SDS011;6285;48.804;9.220;2023-11-19T05:38:07;0.40;;;0.40;;
12441;SDS011;6285;48.804;9.220;2023-11-19T05:40:34;0.40;;;0.30;;
12441;SDS011;6285;48.804;9.220;2023-11-19T05:43:03;1.00;;;0.50;;
12441;SDS011;6285;48.804;9.220;2023-11-19T05:45:31;0.43;;;0.30;;
12441;SDS011;6285;48.804;9.220;2023-11-19T05:47:58;0.60;;;0.40;;
12441;SDS011;6285;48.804;9.220;2023-11-19T05:50:25;2.60;;;0.60;;
12441;SDS011;6285;48.804;9.220;2023-11-19T05:52:52;0.55;;;0.40;;
12441;SDS011;6285;48.804;9.220;2023-11-19T05:55:21;0.25;;;0.22;;
12441;SDS011;6285;48.804;9.220;2023-11-19T05:57:49;0.45;;;0.40;;
12441;SDS011;6285;48.804;9.220;2023-11-19T06:00:17;0.32;;;0.30;;
12441;SDS011;6285;48.804;9.220;2023-11-19T06:02:44;0.40;;;0.30;;
12441;SDS011;6285;48.804;9.220;2023-11-19T06:05:11;0.65;;;0.40;;
12441;SDS011;6285;48.804;9.220;2023-11-19T06:07:39;1.30;;;0.25;;
12441;SDS011;6285;48.804;9.220;2023-11-19T06:10:06;0.40;;;0.30;;
12441;SDS011;6285;48.804;9.220;2023-11-19T06:12:36;0.50;;;0.35;;
12441;SDS011;6285;48.804;9.220;2023-11-19T06:15:06;1.23;;;0.40;;
12441;SDS011;6285;48.804;9.220;2023-11-19T06:17:34;0.30;;;0.30;;
12441;SDS011;6285;48.804;9.220;2023-11-19T06:20:01;0.45;;;0.40;;
12441;SDS011;6285;48.804;9.220;2023-11-19T06:22:30;0.38;;;0.30;;
12441;SDS011;6285;48.804;9.220;2023-11-19T06:24:57;0.47;;;0.43;;
12441;SDS011;6285;48.804;9.220;2023-11-19T06:27:25;0.68;;;0.40;;
12441;SDS011;6285;48.804;9.220;2023-11-19T06:29:53;0.50;;;0.40;;
12441;SDS011;6285;48.804;9.220;2023-11-19T06:32:20;0.55;;;0.38;;
12441;SDS011;6285;48.804;9.220;2023-11-19T06:34:47;0.77;;;0.40;;
12441;SDS011;6285;48.804;9.220;2023-11-19T06:37:14;0.52;;;0.32;;
12441;SDS011;6285;48.804;9.220;2023-11-19T06:39:42;1.40;;;0.50;;
12441;SDS011;6285;48.804;9.220;2023-11-19T06:42:09;0.82;;;0.40;;
12441;SDS011;6285;48.804;9.220;2023-11-19T06:44:36;1.40;;;0.40;;
12441;SDS011;6285;48.804;9.220;2023-11-19T06:47:04;0.60;;;0.50;;
12441;SDS011;6285;48.804;9.220;2023-11-19T06:49:32;2.10;;;0.47;;
12441;SDS011;6285;48.804;9.220;2023-11-19T06:51:59;1.42;;;0.30;;
12441;SDS011;6285;48.804;9.220;2023-11-19T06:54:26;1.50;;;0.30;;
12441;SDS011;6285;48.804;9.220;2023-11-19T06:56:53;0.45;;;0.40;;
12441;SDS011;6285;48.804;9.220;2023-11-19T06:59:20;1.00;;;0.38;;
12441;SDS011;6285;48.804;9.220;2023-11-19T07:01:47;0.60;;;0.40;;
12441;SDS011;6285;48.804;9.220;2023-11-19T07:04:16;1.45;;;0.50;;
12441;SDS011;6285;48.804;9.220;2023-11-19T07:06:43;0.88;;;0.50;;
12441;SDS011;6285;48.804;9.220;2023-11-19T07:09:10;1.02;;;0.45;;
12441;SDS011;6285;48.804;9.220;2023-11-19T07:11:39;1.75;;;0.40;;
12441;SDS011;6285;48.804;9.220;2023-11-19T07:14:06;0.80;;;0.40;;
12441;SDS011;6285;48.804;9.220;2023-11-19T07:16:33;0.85;;;0.40;;
12441;SDS011;6285;48.804;9.220;2023-11-19T07:19:02;0.50;;;0.40;;
12441;SDS011;6285;48.804;9.220;2023-11-19T07:21:31;0.30;;;0.30;;
12441;SDS011;6285;48.804;9.220;2023-11-19T07:23:58;0.47;;;0.40;;
12441;SDS011;6285;48.804;9.220;2023-11-19T07:26:26;1.05;;;0.57;;
12441;SDS011;6285;48.804;9.220;2023-11-19T07:28:53;0.90;;;0.60;;
12441;SDS011;6285;48.804;9.220;2023-11-19T07:31:20;1.08;;;0.50;;
12441;SDS011;6285;48.804;9.220;2023-11-19T07:33:48;0.63;;;0.45;;
12441;SDS011;6285;48.804;9.220;2023-11-19T07:36:16;0.60;;;0.40;;
12441;SDS011;6285;48.804;9.220;2023-11-19T07:38:45;0.50;;;0.40;;
12441;SDS011;6285;48.804;9.220;2023-11-19T07:41:12;0.70;;;0.70;;
12441;SDS011;6285;48.804;9.220;2023-11-19T07:43:39;1.27;;;0.50;;
12441;SDS011;6285;48.804;9.220;2023-11-19T07:46:12;1.38;;;0.40;;
12441;SDS011;6285;48.804;9.220;2023-11-19T07:48:39;0.47;;;0.47;;
12441;SDS011;6285;48.804;9.220;2023-11-19T07:51:07;0.65;;;0.50;;
12441;SDS011;6285;48.804;9.220;2023-11-19T07:53:34;0.75;;;0.63;;
12441;SDS011;6285;48.804;9.220;2023-11-19T07:56:05;0.73;;;0.60;;
12441;SDS011;6285;48.804;9.220;2023-11-19T07:58:32;1.35;;;0.50;;
12441;SDS011;6285;48.804;9.220;2023-11-19T08:00:59;0.98;;;0.50;;
12441;SDS011;6285;48.804;9.220;2023-11-19T08:03:27;0.73;;;0.63;;
12441;SDS011;6285;48.804;9.220;2023-11-19T08:05:54;0.70;;;0.60;;
12441;SDS011;6285;48.804;9.220;2023-11-19T08:08:22;3.10;;;0.60;;
12441;SDS011;6285;48.804;9.220;2023-11-19T08:10:49;1.13;;;0.70;;
12441;SDS011;6285;48.804;9.220;2023-11-19T08:13:18;1.77;;;0.60;;
12441;SDS011;6285;48.804;9.220;2023-11-19T08:15:45;1.65;;;0.70;;
12441;SDS011;6285;48.804;9.220;2023-11-19T08:18:12;1.65;;;0.60;;
12441;SDS011;6285;48.804;9.220;2023-11-19T08:20:39;1.65;;;0.60;;
12441;SDS011;6285;48.804;9.220;2023-11-19T08:23:09;0.63;;;0.50;;
12441;SDS011;6285;48.804;9.220;2023-11-19T08:25:36;0.82;;;0.60;;
12441;SDS011;6285;48.804;9.220;2023-11-19T08:28:03;1.83;;;0.60;;
12441;SDS011;6285;48.804;9.220;2023-11-19T08:30:32;0.40;;;0.40;;
12441;SDS011;6285;48.804;9.220;2023-11-19T08:32:59;0.90;;;0.50;;
12441;SDS011;6285;48.804;9.220;2023-11-19T08:35:27;1.70;;;0.60;;
12441;SDS011;6285;48.804;9.220;2023-11-19T08:37:55;2.33;;;0.50;;
12441;SDS011;6285;48.804;9.220;2023-11-19T08:40:22;1.42;;;0.82;;
12441;SDS011;6285;48.804;9.220;2023-11-19T08:42:50;2.08;;;0.88;;
12441;SDS011;6285;48.804;9.220;2023-11-19T08:45:17;1.13;;;0.50;;
12441;SDS011;6285;48.804;9.220;2023-11-19T08:47:45;2.15;;;1.90;;
12441;SDS011;6285;48.804;9.220;2023-11-19T08:50:12;2.20;;;1.85;;
12441;SDS011;6285;48.804;9.220;2023-11-19T08:52:39;0.50;;;0.40;;
12441;SDS011;6285;48.804;9.220;2023-11-19T08:55:07;0.55;;;0.38;;
12441;SDS011;6285;48.804;9.220;2023-11-19T08:57:35;1.52;;;0.80;;
12441;SDS011;6285;48.804;9.220;2023-11-19T09:00:01;0.85;;;0.63;;
12441;SDS011;6285;48.804;9.220;2023-11-19T09:02:29;0.90;;;0.63;;
12441;SDS011;6285;48.804;9.220;2023-11-19T09:04:58;3.08;;;0.88;;
12441;SDS011;6285;48.804;9.220;2023-11-19T09:07:26;1.05;;;0.65;;
12441;SDS011;6285;48.804;9.220;2023-11-19T09:09:54;1.10;;;0.70;;
12441;SDS011;6285;48.804;9.220;2023-11-19T09:12:21;1.73;;;0.90;;
12441;SDS011;6285;48.804;9.220;2023-11-19T09:14:48;3.83;;;1.83;;
12441;SDS011;6285;48.804;9.220;2023-11-19T09:17:15;0.80;;;0.50;;
12441;SDS011;6285;48.804;9.220;2023-11-19T09:19:43;1.25;;;0.63;;
12441;SDS011;6285;48.804;9.220;2023-11-19T09:22:12;2.50;;;0.70;;
12441;SDS011;6285;48.804;9.220;2023-11-19T09:24:39;1.70;;;0.60;;
12441;SDS011;6285;48.804;9.220;2023-11-19T09:27:06;1.85;;;0.60;;
12441;SDS011;6285;48.804;9.220;2023-11-19T09:29:33;0.55;;;0.47;;
12441;SDS011;6285;48.804;9.220;2023-11-19T09:32:01;0.60;;;0.50;;
12441;SDS011;6285;48.804;9.220;2023-11-19T09:34:28;1.15;;;0.85;;
12441;SDS011;6285;48.804;9.220;2023-11-19T09:36:56;0.75;;;0.60;;
12441;SDS011;6285;48.804;9.220;2023-11-19T09:39:25;0.80;;;0.70;;
12441;SDS011;6285;48.804;9.220;2023-11-19T09:41:52;1.33;;;0.80;;
12441;SDS011;6285;48.804;9.220;2023-11-19T09:44:19;0.55;;;0.50;;
12441;SDS011;6285;48.804;9.220;2023-11-19T09:46:47;1.08;;;0.82;;
12441;SDS011;6285;48.804;9.220;2023-11-19T09:49:14;1.38;;;0.70;;
12441;SDS011;6285;48.804;9.220;2023-11-19T09:51:43;2.88;;;1.35;;
12441;SDS011;6285;48.804;9.220;2023-11-19T09:54:10;1.00;;;0.60;;
12441;SDS011;6285;48.804;9.220;2023-11-19T09:56:40;1.00;;;0.60;;
12441;SDS011;6285;48.804;9.220;2023-11-19T09:59:07;1.33;;;0.63;;
12441;SDS011;6285;48.804;9.220;2023-11-19T10:01:36;0.80;;;0.60;;
12441;SDS011;6285;48.804;9.220;2023-11-19T10:04:04;1.25;;;0.60;;
12441;SDS011;6285;48.804;9.220;2023-11-19T10:06:32;1.15;;;0.70;;
12441;SDS011;6285;48.804;9.220;2023-11-19T10:08:59;1.00;;;0.68;;
12441;SDS011;6285;48.804;9.220;2023-11-19T10:11:29;0.70;;;0.50;;
12441;SDS011;6285;48.804;9.220;2023-11-19T10:13:58;1.10;;;0.52;;
12441;SDS011;6285;48.804;9.220;2023-11-19T10:16:28;1.58;;;0.80;;
12441;SDS011;6285;48.804;9.220;2023-11-19T10:18:56;1.98;;;1.60;;
12441;SDS011;6285;48.804;9.220;2023-11-19T10:21:23;2.13;;;1.40;;
12441;SDS011;6285;48.804;9.220;2023-11-19T10:23:53;1.90;;;1.58;;
12441;SDS011;6285;48.804;9.220;2023-11-19T10:26:22;2.55;;;1.95;;
12441;SDS011;6285;48.804;9.220;2023-11-19T10:28:49;1.70;;;1.00;;
12441;SDS011;6285;48.804;9.220;2023-11-19T10:31:18;2.33;;;1.58;;
12441;SDS011;6285;48.804;9.220;2023-11-19T10:33:48;1.17;;;0.70;;
12441;SDS011;6285;48.804;9.220;2023-11-19T10:36:14;1.23;;;0.80;;
12441;SDS011;6285;48.804;9.220;2023-11-19T10:38:51;1.45;;;0.60;;
12441;SDS011;6285;48.804;9.220;2023-11-19T10:41:26;1.70;;;1.00;;
12441;SDS011;6285;48.804;9.220;2023-11-19T10:43:53;1.20;;;0.88;;
12441;SDS011;6285;48.804;9.220;2023-11-19T10:46:21;1.90;;;0.93;;
12441;SDS011;6285;48.804;9.220;2023-11-19T10:48:49;1.20;;;0.80;;
12441;SDS011;6285;48.804;9.220;2023-11-19T10:51:18;2.45;;;0.90;;
12441;SDS011;6285;48.804;9.220;2023-11-19T10:53:48;1.73;;;0.80;;
12441;SDS011;6285;48.804;9.220;2023-11-19T10:56:16;1.65;;;0.43;;
12441;SDS011;6285;48.804;9.220;2023-11-19T10:58:46;2.28;;;0.70;;
12441;SDS011;6285;48.804;9.220;2023-11-19T11:01:15;2.60;;;0.63;;
12441;SDS011;6285;48.804;9.220;2023-11-19T11:03:45;1.50;;;0.80;;
12441;SDS011;6285;48.804;9.220;2023-11-19T11:06:12;1.00;;;0.60;;
12441;SDS011;6285;48.804;9.220;2023-11-19T11:08:40;1.52;;;0.70;;
12441;SDS011;6285;48.804;9.220;2023-11-19T11:11:07;2.45;;;1.00;;
12441;SDS011;6285;48.804;9.220;2023-11-19T11:13:35;2.15;;;0.88;;
12441;SDS011;6285;48.804;9.220;2023-11-19T11:16:05;0.98;;;0.60;;
12441;SDS011;6285;48.804;9.220;2023-11-19T11:18:33;1.65;;;0.80;;
12441;SDS011;6285;48.804;9.220;2023-11-19T11:21:02;1.60;;;0.55;;
12441;SDS011;6285;48.804;9.220;2023-11-19T11:29:05;2.00;;;0.60;;
12441;SDS011;6285;48.804;9.220;2023-11-19T11:31:42;2.42;;;0.70;;
12441;SDS011;6285;48.804;9.220;2023-11-19T11:34:27;3.67;;;0.80;;
12441;SDS011;6285;48.804;9.220;2023-11-19T11:37:25;1.35;;;0.82;;
12441;SDS011;6285;48.804;9.220;2023-11-19T11:39:58;1.38;;;0.80;;
12441;SDS011;6285;48.804;9.220;2023-11-19T11:42:34;1.20;;;0.60;;
12441;SDS011;6285;48.804;9.220;2023-11-19T11:45:03;2.85;;;1.17;;
12441;SDS011;6285;48.804;9.220;2023-11-19T11:50:18;1.98;;;0.70;;
12441;SDS011;6285;48.804;9.220;2023-11-19T11:55:35;2.25;;;0.90;;
12441;SDS011;6285;48.804;9.220;2023-11-19T11:58:02;2.55;;;0.90;;
12441;SDS011;6285;48.804;9.220;2023-11-19T12:00:30;1.65;;;0.90;;
12441;SDS011;6285;48.804;9.220;2023-11-19T12:02:58;1.65;;;0.70;;
12441;SDS011;6285;48.804;9.220;2023-11-19T12:05:26;3.85;;;1.23;;
12441;SDS011;6285;48.804;9.220;2023-11-19T12:07:54;1.10;;;0.70;;
12441;SDS011;6285;48.804;9.220;2023-11-19T12:10:23;2.65;;;1.35;;
12441;SDS011;6285;48.804;9.220;2023-11-19T12:12:53;2.30;;;1.60;;
12441;SDS011;6285;48.804;9.220;2023-11-19T12:15:20;2.33;;;1.10;;
12441;SDS011;6285;48.804;9.220;2023-11-19T12:17:50;1.73;;;0.93;;
12441;SDS011;6285;48.804;9.220;2023-11-19T12:20:17;4.10;;;1.10;;
12441;SDS011;6285;48.804;9.220;2023-11-19T12:22:45;2.13;;;1.48;;
12441;SDS011;6285;48.804;9.220;2023-11-19T12:25:14;1.13;;;0.68;;
12441;SDS011;6285;48.804;9.220;2023-11-19T12:27:43;0.82;;;0.60;;
12441;SDS011;6285;48.804;9.220;2023-11-19T12:30:12;2.25;;;0.68;;
12441;SDS011;6285;48.804;9.220;2023-11-19T12:32:40;2.15;;;0.88;;
12441;SDS011;6285;48.804;9.220;2023-11-19T12:35:08;0.88;;;0.47;;
12441;SDS011;6285;48.804;9.220;2023-11-19T12:37:40;2.13;;;0.80;;
12441;SDS011;6285;48.804;9.220;2023-11-19T12:40:14;1.33;;;0.68;;
12441;SDS011;6285;48.804;9.220;2023-11-19T12:42:42;1.52;;;0.60;;
12441;SDS011;6285;48.804;9.220;2023-11-19T12:45:09;2.97;;;1.13;;
12441;SDS011;6285;48.804;9.220;2023-11-19T12:47:38;1.92;;;0.90;;
12441;SDS011;6285;48.804;9.220;2023-11-19T12:50:06;2.22;;;0.93;;
12441;SDS011;6285;48.804;9.220;2023-11-19T12:52:33;1.98;;;0.60;;
12441;SDS011;6285;48.804;9.220;2023-11-19T12:55:01;2.17;;;0.82;;
12441;SDS011;6285;48.804;9.220;2023-11-19T12:57:37;4.53;;;0.82;;
12441;SDS011;6285;48.804;9.220;2023-11-19T13:00:05;2.35;;;0.95;;
12441;SDS011;6285;48.804;9.220;2023-11-19T13:02:46;2.30;;;1.10;;
12441;SDS011;6285;48.804;9.220;2023-11-19T13:05:23;1.42;;;0.82;;
12441;SDS011;6285;48.804;9.220;2023-11-19T13:07:51;1.38;;;0.73;;
12441;SDS011;6285;48.804;9.220;2023-11-19T13:10:18;0.82;;;0.50;;
12441;SDS011;6285;48.804;9.220;2023-11-19T13:12:59;2.58;;;0.80;;
12441;SDS011;6285;48.804;9.220;2023-11-19T13:15:26;1.63;;;0.70;;
12441;SDS011;6285;48.804;9.220;2023-11-19T13:17:55;1.17;;;0.60;;
12441;SDS011;6285;48.804;9.220;2023-11-19T13:20:22;4.40;;;0.70;;
12441;SDS011;6285;48.804;9.220;2023-11-19T13:22:59;2.95;;;0.80;;
12441;SDS011;6285;48.804;9.220;2023-11-19T13:25:26;3.30;;;0.80;;
12441;SDS011;6285;48.804;9.220;2023-11-19T13:27:53;3.22;;;0.68;;
12441;SDS011;6285;48.804;9.220;2023-11-19T13:30:21;1.67;;;0.63;;
12441;SDS011;6285;48.804;9.220;2023-11-19T13:32:48;1.38;;;0.68;;
12441;SDS011;6285;48.804;9.220;2023-11-19T13:35:17;1.27;;;0.50;;
12441;SDS011;6285;48.804;9.220;2023-11-19T13:37:44;1.42;;;0.77;;
12441;SDS011;6285;48.804;9.220;2023-11-19T13:40:11;2.60;;;0.80;;
12441;SDS011;6285;48.804;9.220;2023-11-19T13:42:40;1.83;;;0.68;;
12441;SDS011;6285;48.804;9.220;2023-11-19T13:45:08;1.10;;;0.60;;
12441;SDS011;6285;48.804;9.220;2023-11-19T13:47:37;3.13;;;0.93;;
12441;SDS011;6285;48.804;9.220;2023-11-19T13:50:06;1.17;;;0.60;;
12441;SDS011;6285;48.804;9.220;2023-11-19T13:52:35;1.95;;;0.70;;
12441;SDS011;6285;48.804;9.220;2023-11-19T13:55:04;1.30;;;0.65;;
12441;SDS011;6285;48.804;9.220;2023-11-19T13:57:32;1.38;;;0.68;;
12441;SDS011;6285;48.804;9.220;2023-11-19T13:59:59;1.42;;;0.80;;
12441;SDS011;6285;48.804;9.220;2023-11-19T14:02:27;1.15;;;0.80;;
12441;SDS011;6285;48.804;9.220;2023-11-19T14:04:55;0.90;;;0.60;;
12441;SDS011;6285;48.804;9.220;2023-11-19T14:07:22;1.83;;;0.60;;
12441;SDS011;6285;48.804;9.220;2023-11-19T14:09:50;2.47;;;0.80;;
12441;SDS011;6285;48.804;9.220;2023-11-19T14:12:17;2.00;;;0.60;;
12441;SDS011;6285;48.804;9.220;2023-11-19T14:14:45;1.33;;;0.60;;
12441;SDS011;6285;48.804;9.220;2023-11-19T14:17:12;1.20;;;0.60;;
12441;SDS011;6285;48.804;9.220;2023-11-19T14:19:40;1.45;;;0.80;;
12441;SDS011;6285;48.804;9.220;2023-11-19T14:22:07;0.85;;;0.52;;
12441;SDS011;6285;48.804;9.220;2023-11-19T14:24:34;0.68;;;0.52;;
12441;SDS011;6285;48.804;9.220;2023-11-19T14:27:03;1.35;;;0.60;;
12441;SDS011;6285;48.804;9.220;2023-11-19T14:29:30;2.58;;;0.70;;
12441;SDS011;6285;48.804;9.220;2023-11-19T14:31:57;3.35;;;0.80;;
12441;SDS011;6285;48.804;9.220;2023-11-19T14:34:24;1.95;;;0.90;;
12441;SDS011;6285;48.804;9.220;2023-11-19T14:36:52;2.10;;;0.75;;
12441;SDS011;6285;48.804;9.220;2023-11-19T14:39:20;1.85;;;0.65;;
12441;SDS011;6285;48.804;9.220;2023-11-19T14:41:47;2.05;;;0.90;;
12441;SDS011;6285;48.804;9.220;2023-11-19T14:44:15;1.48;;;0.63;;
12441;SDS011;6285;48.804;9.220;2023-11-19T14:46:44;5.90;;;1.10;;
12441;SDS011;6285;48.804;9.220;2023-11-19T14:49:12;2.33;;;0.80;;
12441;SDS011;6285;48.804;9.220;2023-11-19T14:51:39;2.38;;;1.00;;
12441;SDS011;6285;48.804;9.220;2023-11-19T14:54:06;1.92;;;1.13;;
12441;SDS011;6285;48.804;9.220;2023-11-19T14:56:33;1.73;;;0.90;;
12441;SDS011;6285;48.804;9.220;2023-11-19T14:59:00;1.05;;;0.70;;
12441;SDS011;6285;48.804;9.220;2023-11-19T15:01:29;2.38;;;0.90;;
12441;SDS011;6285;48.804;9.220;2023-11-19T15:03:56;2.35;;;0.75;;
12441;SDS011;6285;48.804;9.220;2023-11-19T15:06:23;2.72;;;1.08;;
12441;SDS011;6285;48.804;9.220;2023-11-19T15:08:52;1.30;;;0.98;;
12441;SDS011;6285;48.804;9.220;2023-11-19T15:11:19;2.30;;;1.02;;
12441;SDS011;6285;48.804;9.220;2023-11-19T15:13:47;1.60;;;0.73;;
12441;SDS011;6285;48.804;9.220;2023-11-19T15:16:15;1.23;;;0.80;;